sensor_id;sensor_type;location;lat;lon;timestamp;pressure;altitude;pressure_sealevel;temperature;humidity
52343;BME280;38277;51.972;4.624;2022-12-29T00:00:14;100040.0;;;12.2;85.5
52343;BME280;38277;51.972;4.624;2022-12-29T00:06:16;100020.0;;;12.3;84.5
52343;BME280;38277;51.972;4.624;2022-12-29T00:13:56;100010.0;;;12.4;83.5
52343;BME280;38277;51.972;4.624;2022-12-29T00:19:58;100000.0;;;12.4;82.5
52343;BME280;38277;51.972;4.624;2022-12-29T00:27:25;99980.0;;;12.5;82.0
52343;BME280;38277;51.972;4.624;2022-12-29T00:40:35;99980.0;;;12.6;82.0
52343;BME280;38277;51.972;4.624;2022-12-29T00:46:39;99980.0;;;12.4;83.5
52343;BME280;38277;51.972;4.624;2022-12-29T00:52:40;99970.0;;;12.3;84.0
52343;BME280;38277;51.972;4.624;2022-12-29T01:07:50;99960.0;;;11.9;89.0
52343;BME280;38277;51.972;4.624;2022-12-29T01:12:23;99950.0;;;11.7;91.5
52343;BME280;38277;51.972;4.624;2022-12-29T01:18:27;99970.0;;;11.7;92.5
52343;BME280;38277;51.972;4.624;2022-12-29T01:31:58;99960.0;;;11.6;93.0
52343;BME280;38277;51.972;4.624;2022-12-29T01:39:12;99970.0;;;11.6;93.5
52343;BME280;38277;51.972;4.624;2022-12-29T01:45:16;99960.0;;;11.6;93.5
52343;BME280;38277;51.972;4.624;2022-12-29T01:53:18;99960.0;;;11.5;92.5
52343;BME280;38277;51.972;4.624;2022-12-29T01:59:08;99960.0;;;11.5;91.5
52343;BME280;38277;51.972;4.624;2022-12-29T02:06:42;99970.0;;;11.5;91.0
52343;BME280;38277;51.972;4.624;2022-12-29T02:12:34;99980.0;;;11.5;90.5
52343;BME280;38277;51.972;4.624;2022-12-29T02:22:03;99950.0;;;11.5;89.5
52343;BME280;38277;51.972;4.624;2022-12-29T02:30:06;99960.0;;;11.5;89.0
52343;BME280;38277;51.972;4.624;2022-12-29T02:39:23;99970.0;;;11.5;88.5
52343;BME280;38277;51.972;4.624;2022-12-29T02:42:13;99960.0;;;11.5;87.5
52343;BME280;38277;51.972;4.624;2022-12-29T02:48:23;99970.0;;;11.5;86.0
52343;BME280;38277;51.972;4.624;2022-12-29T02:52:58;99960.0;;;11.6;84.0
52343;BME280;38277;51.972;4.624;2022-12-29T03:00:14;99950.0;;;11.5;82.5
52343;BME280;38277;51.972;4.624;2022-12-29T03:07:38;99950.0;;;11.5;82.0
52343;BME280;38277;51.972;4.624;2022-12-29T03:14:29;99970.0;;;11.5;81.5
52343;BME280;38277;51.972;4.624;2022-12-29T03:20:08;99940.0;;;11.5;81.5
52343;BME280;38277;51.972;4.624;2022-12-29T03:23:03;99950.0;;;11.6;81.5
52343;BME280;38277;51.972;4.624;2022-12-29T03:29:05;99940.0;;;11.6;82.0
52343;BME280;38277;51.972;4.624;2022-12-29T03:36:30;99930.0;;;11.5;82.0
52343;BME280;38277;51.972;4.624;2022-12-29T03:45:24;99960.0;;;11.5;82.0
52343;BME280;38277;51.972;4.624;2022-12-29T03:49:56;99950.0;;;11.6;81.5
52343;BME280;38277;51.972;4.624;2022-12-29T03:55:57;99950.0;;;11.6;81.0
52343;BME280;38277;51.972;4.624;2022-12-29T04:06:13;99950.0;;;11.6;80.0
52343;BME280;38277;51.972;4.624;2022-12-29T04:12:15;99950.0;;;11.5;79.5
52343;BME280;38277;51.972;4.624;2022-12-29T04:16:57;99980.0;;;11.1;80.0
52343;BME280;38277;51.972;4.624;2022-12-29T04:26:01;99980.0;;;11.0;81.5
52343;BME280;38277;51.972;4.624;2022-12-29T04:30:13;99980.0;;;10.8;83.5
52343;BME280;38277;51.972;4.624;2022-12-29T04:39:11;99980.0;;;10.5;85.0
52343;BME280;38277;51.972;4.624;2022-12-29T04:43:46;99980.0;;;10.5;85.5
52343;BME280;38277;51.972;4.624;2022-12-29T04:48:42;99990.0;;;10.5;86.0
52343;BME280;38277;51.972;4.624;2022-12-29T04:52:51;99990.0;;;10.5;86.0
52343;BME280;38277;51.972;4.624;2022-12-29T05:02:01;100010.0;;;10.6;86.0
52343;BME280;38277;51.972;4.624;2022-12-29T05:19:49;100020.0;;;10.3;89.5
52343;BME280;38277;51.972;4.624;2022-12-29T05:28:57;100040.0;;;10.3;89.0
52343;BME280;38277;51.972;4.624;2022-12-29T05:37:43;100040.0;;;10.3;89.0
52343;BME280;38277;51.972;4.624;2022-12-29T05:46:59;100030.0;;;10.2;89.0
52343;BME280;38277;51.972;4.624;2022-12-29T05:51:55;100030.0;;;10.1;89.0
52343;BME280;38277;51.972;4.624;2022-12-29T06:00:58;100040.0;;;10.1;89.5
52343;BME280;38277;51.972;4.624;2022-12-29T06:10:01;100060.0;;;10.1;89.0
52343;BME280;38277;51.972;4.624;2022-12-29T06:19:05;100070.0;;;10.1;88.0
52343;BME280;38277;51.972;4.624;2022-12-29T06:28:08;100050.0;;;10.1;86.5
52343;BME280;38277;51.972;4.624;2022-12-29T06:37:11;100060.0;;;10.2;82.5
52343;BME280;38277;51.972;4.624;2022-12-29T06:49:15;100050.0;;;10.3;80.5
52343;BME280;38277;51.972;4.624;2022-12-29T06:58:18;100050.0;;;10.2;80.0
52343;BME280;38277;51.972;4.624;2022-12-29T07:04:20;100070.0;;;10.1;81.5
52343;BME280;38277;51.972;4.624;2022-12-29T07:22:27;100080.0;;;10.1;83.5
52343;BME280;38277;51.972;4.624;2022-12-29T07:31:30;100090.0;;;10.1;84.0
52343;BME280;38277;51.972;4.624;2022-12-29T07:40:32;100080.0;;;10.3;82.5
52343;BME280;38277;51.972;4.624;2022-12-29T07:49:36;100070.0;;;10.4;81.5
52343;BME280;38277;51.972;4.624;2022-12-29T07:58:39;100090.0;;;10.5;79.0
52343;BME280;38277;51.972;4.624;2022-12-29T08:10:43;100080.0;;;10.6;77.5
52343;BME280;38277;51.972;4.624;2022-12-29T08:16:45;100090.0;;;10.5;78.0
52343;BME280;38277;51.972;4.624;2022-12-29T08:25:56;100110.0;;;10.5;78.5
52343;BME280;38277;51.972;4.624;2022-12-29T08:34:52;100120.0;;;10.3;80.5
52343;BME280;38277;51.972;4.624;2022-12-29T08:49:57;100130.0;;;10.2;83.0
52343;BME280;38277;51.972;4.624;2022-12-29T08:52:57;100140.0;;;9.9;86.5
52343;BME280;38277;51.972;4.624;2022-12-29T08:59:00;100150.0;;;9.8;87.5
52343;BME280;38277;51.972;4.624;2022-12-29T09:02:01;100170.0;;;9.8;88.0
52343;BME280;38277;51.972;4.624;2022-12-29T09:09:16;100170.0;;;9.7;89.5
52343;BME280;38277;51.972;4.624;2022-12-29T09:25:48;100180.0;;;9.6;91.0
52343;BME280;38277;51.972;4.624;2022-12-29T09:39:14;100210.0;;;9.7;92.0
52343;BME280;38277;51.972;4.624;2022-12-29T09:42:24;100220.0;;;9.8;92.0
52343;BME280;38277;51.972;4.624;2022-12-29T09:53:09;100250.0;;;9.9;92.0
52343;BME280;38277;51.972;4.624;2022-12-29T09:56:02;100240.0;;;10.0;91.5
52343;BME280;38277;51.972;4.624;2022-12-29T10:06:23;100270.0;;;10.1;91.5
52343;BME280;38277;51.972;4.624;2022-12-29T10:09:34;100270.0;;;10.1;92.0
52343;BME280;38277;51.972;4.624;2022-12-29T10:21:11;100310.0;;;10.2;91.5
52343;BME280;38277;51.972;4.624;2022-12-29T10:23:52;100310.0;;;10.2;92.0
52343;BME280;38277;51.972;4.624;2022-12-29T10:30:35;100320.0;;;10.2;92.0
52343;BME280;38277;51.972;4.624;2022-12-29T10:36:39;100340.0;;;10.3;91.5
52343;BME280;38277;51.972;4.624;2022-12-29T10:45:40;100350.0;;;10.6;90.0
52343;BME280;38277;51.972;4.624;2022-12-29T11:00:49;100370.0;;;10.8;88.0
52343;BME280;38277;51.972;4.624;2022-12-29T11:06:47;100370.0;;;10.8;87.0
52343;BME280;38277;51.972;4.624;2022-12-29T11:12:58;100390.0;;;11.1;85.5
52343;BME280;38277;51.972;4.624;2022-12-29T11:21:53;100400.0;;;11.2;84.5
52343;BME280;38277;51.972;4.624;2022-12-29T11:33:57;100400.0;;;11.2;84.5
52343;BME280;38277;51.972;4.624;2022-12-29T11:43:01;100410.0;;;11.3;83.5
52343;BME280;38277;51.972;4.624;2022-12-29T11:49:02;100410.0;;;11.4;82.5
52343;BME280;38277;51.972;4.624;2022-12-29T11:55:17;100430.0;;;11.4;81.5
52343;BME280;38277;51.972;4.624;2022-12-29T11:58:05;100430.0;;;11.5;81.0
52343;BME280;38277;51.972;4.624;2022-12-29T12:07:39;100440.0;;;11.7;79.5
52343;BME280;38277;51.972;4.624;2022-12-29T12:10:44;100440.0;;;11.7;77.5
52343;BME280;38277;51.972;4.624;2022-12-29T12:19:46;100430.0;;;11.6;78.0
52343;BME280;38277;51.972;4.624;2022-12-29T12:26:10;100440.0;;;11.7;76.0
52343;BME280;38277;51.972;4.624;2022-12-29T12:32:11;100450.0;;;11.7;76.5
52343;BME280;38277;51.972;4.624;2022-12-29T12:37:12;100450.0;;;12.0;76.0
52343;BME280;38277;51.972;4.624;2022-12-29T12:47:16;100460.0;;;12.1;74.5
52343;BME280;38277;51.972;4.624;2022-12-29T12:52:48;100470.0;;;12.0;75.0
52343;BME280;38277;51.972;4.624;2022-12-29T13:06:22;100480.0;;;12.0;75.0
52343;BME280;38277;51.972;4.624;2022-12-29T13:16:50;100480.0;;;11.9;75.0
52343;BME280;38277;51.972;4.624;2022-12-29T13:19:57;100470.0;;;11.9;75.5
52343;BME280;38277;51.972;4.624;2022-12-29T13:26:17;100470.0;;;11.8;76.5
52343;BME280;38277;51.972;4.624;2022-12-29T13:31:07;100460.0;;;11.8;77.5
52343;BME280;38277;51.972;4.624;2022-12-29T13:48:23;100510.0;;;10.5;83.0
52343;BME280;38277;51.972;4.624;2022-12-29T13:53:55;100510.0;;;10.4;84.0
52343;BME280;38277;51.972;4.624;2022-12-29T14:08:17;100500.0;;;10.3;84.5
52343;BME280;38277;51.972;4.624;2022-12-29T14:14:21;100500.0;;;10.3;84.5
52343;BME280;38277;51.972;4.624;2022-12-29T14:20:21;100500.0;;;10.3;85.5
52343;BME280;38277;51.972;4.624;2022-12-29T14:29:49;100510.0;;;10.4;86.0
52343;BME280;38277;51.972;4.624;2022-12-29T14:41:35;100510.0;;;10.4;85.5
52343;BME280;38277;51.972;4.624;2022-12-29T14:50:38;100500.0;;;10.4;85.5
52343;BME280;38277;51.972;4.624;2022-12-29T15:05:37;100520.0;;;10.5;85.0
52343;BME280;38277;51.972;4.624;2022-12-29T15:14:36;100540.0;;;10.6;84.0
52343;BME280;38277;51.972;4.624;2022-12-29T15:23:36;100530.0;;;10.5;83.0
52343;BME280;38277;51.972;4.624;2022-12-29T15:32:46;100540.0;;;10.6;82.0
52343;BME280;38277;51.972;4.624;2022-12-29T15:41:56;100550.0;;;10.6;82.0
52343;BME280;38277;51.972;4.624;2022-12-29T15:50:44;100570.0;;;10.5;81.0
52343;BME280;38277;51.972;4.624;2022-12-29T16:02:48;100580.0;;;10.3;79.5
52343;BME280;38277;51.972;4.624;2022-12-29T16:08:57;100610.0;;;10.2;79.0
52343;BME280;38277;51.972;4.624;2022-12-29T16:17:54;100620.0;;;10.1;78.5
52343;BME280;38277;51.972;4.624;2022-12-29T16:29:57;100620.0;;;9.9;79.0
52343;BME280;38277;51.972;4.624;2022-12-29T16:36:01;100620.0;;;9.8;79.0
52343;BME280;38277;51.972;4.624;2022-12-29T16:45:40;100630.0;;;9.8;79.5
52343;BME280;38277;51.972;4.624;2022-12-29T17:03:10;100640.0;;;9.5;79.0
52343;BME280;38277;51.972;4.624;2022-12-29T17:15:18;100680.0;;;9.4;79.0
52343;BME280;38277;51.972;4.624;2022-12-29T17:21:16;100680.0;;;9.3;79.0
52343;BME280;38277;51.972;4.624;2022-12-29T17:30:20;100700.0;;;9.3;78.5
52343;BME280;38277;51.972;4.624;2022-12-29T17:39:21;100710.0;;;9.3;78.0
52343;BME280;38277;51.972;4.624;2022-12-29T18:06:31;100740.0;;;9.1;78.5
52343;BME280;38277;51.972;4.624;2022-12-29T18:15:35;100740.0;;;9.1;78.5
52343;BME280;38277;51.972;4.624;2022-12-29T18:27:38;100720.0;;;9.0;79.0
52343;BME280;38277;51.972;4.624;2022-12-29T18:39:42;100750.0;;;9.0;79.5
52343;BME280;38277;51.972;4.624;2022-12-29T18:42:43;100760.0;;;9.1;79.5
52343;BME280;38277;51.972;4.624;2022-12-29T18:51:46;100770.0;;;9.1;79.0
52343;BME280;38277;51.972;4.624;2022-12-29T19:03:51;100780.0;;;9.2;79.0
52343;BME280;38277;51.972;4.624;2022-12-29T19:09:52;100800.0;;;9.1;79.5
52343;BME280;38277;51.972;4.624;2022-12-29T19:18:56;100800.0;;;9.0;80.0
52343;BME280;38277;51.972;4.624;2022-12-29T19:34:01;100800.0;;;8.9;80.0
52343;BME280;38277;51.972;4.624;2022-12-29T19:43:04;100820.0;;;8.9;80.0
52343;BME280;38277;51.972;4.624;2022-12-29T19:46:06;100820.0;;;8.8;80.5
52343;BME280;38277;51.972;4.624;2022-12-29T19:58:10;100820.0;;;8.8;80.5
52343;BME280;38277;51.972;4.624;2022-12-29T20:04:11;100830.0;;;8.7;81.0
52343;BME280;38277;51.972;4.624;2022-12-29T20:22:17;100830.0;;;8.6;81.5
52343;BME280;38277;51.972;4.624;2022-12-29T20:31:23;100850.0;;;8.6;81.5
52343;BME280;38277;51.972;4.624;2022-12-29T20:46:27;100860.0;;;8.6;82.0
52343;BME280;38277;51.972;4.624;2022-12-29T20:52:28;100870.0;;;8.6;82.0
52343;BME280;38277;51.972;4.624;2022-12-29T20:58:30;100900.0;;;8.6;82.0
52343;BME280;38277;51.972;4.624;2022-12-29T21:12:05;100900.0;;;8.6;82.5
52343;BME280;38277;51.972;4.624;2022-12-29T21:18:07;100900.0;;;8.7;82.5
52343;BME280;38277;51.972;4.624;2022-12-29T21:23:05;100900.0;;;8.7;82.5
52343;BME280;38277;51.972;4.624;2022-12-29T21:32:07;100900.0;;;8.6;82.5
52343;BME280;38277;51.972;4.624;2022-12-29T21:36:05;100920.0;;;8.5;82.5
52343;BME280;38277;51.972;4.624;2022-12-29T21:42:06;100940.0;;;8.5;83.0
52343;BME280;38277;51.972;4.624;2022-12-29T21:49:43;100940.0;;;8.3;83.0
52343;BME280;38277;51.972;4.624;2022-12-29T21:55:44;100950.0;;;8.3;83.5
52343;BME280;38277;51.972;4.624;2022-12-29T22:07:51;100990.0;;;8.2;83.5
52343;BME280;38277;51.972;4.624;2022-12-29T22:21:05;101010.0;;;8.2;83.5
52343;BME280;38277;51.972;4.624;2022-12-29T22:33:08;101020.0;;;8.2;83.5
52343;BME280;38277;51.972;4.624;2022-12-29T22:58:51;101030.0;;;8.3;83.0
52343;BME280;38277;51.972;4.624;2022-12-29T23:04:54;101030.0;;;8.3;83.0
52343;BME280;38277;51.972;4.624;2022-12-29T23:10:56;101040.0;;;8.3;83.0
52343;BME280;38277;51.972;4.624;2022-12-29T23:21:54;101050.0;;;8.2;83.5
52343;BME280;38277;51.972;4.624;2022-12-29T23:24:55;101050.0;;;8.3;83.0
52343;BME280;38277;51.972;4.624;2022-12-29T23:33:59;101070.0;;;8.3;83.0
52343;BME280;38277;51.972;4.624;2022-12-29T23:46:04;101070.0;;;8.3;83.0
52343;BME280;38277;51.972;4.624;2022-12-29T23:52:05;101070.0;;;8.3;82.5
